Fairbanks/Eielson AFB, Alaska
Current Conditions -  °F | °C
As of 7:58 PM on Sunday 21 Dec 2014 (Local Time) from PAEI Reporting Station
Clear Clear  
Wind Chill: -9°   Ceiling: Unl
Heat Index: -9°   Visibility: 10mi
Dew Point: -15°   Wind: 1mph
Humidity: 77%   Direction: 160°SSE
Pressure: 29.49"   Gusts: NA
Location:  64.67°N, 147.1°W
Report Text: PAEI 220458Z AUTO 16001KT 10SM CLR M23/M26 A2949 RMK AO2 SLP005 T12291259 $
Loading
Personal Weather Stations






























Interactive Weather Map New forecast layout! Learn more

10-Day Weather Forecast

Advertisements
Track Severe Weather on mobile